x

New London Ledge Ct - Ledge Light Weather Station (ldlc3) Weather Station

5:15 - Fri 9th Dec 2016 All times are EST. -5 hours from GMT.

  • Wind
    24mph, 29mph gusts
  • Aire Temp 34°f
  • Sea Pressure 1018.3mb
  • New London Ledge Ct - Ledge Light Weather Station
  • New London Ledge Ct - Ledge Light Weather Station

More Historic Weather Station data

Upgrade to MSW Pro to gain access to the past 30 days of data for over 8000 Wavebouys and Weather Stations around the globe.

Join Pro

Comparision Forecast

View Surf forecast
   
vie 12/09 5:15 24 29 mph 1018.3mb 34f
5:00 18 25 mph 1018.3mb 35f
4:45 20 25 mph 1018mb 35f
4:30 18 25 mph 1017.7mb 36f
4:15 18 24 mph 1017.3mb 36f
4:00 21 25 mph 1016.8mb 37f
3:45 23 30 mph 1016.7mb 37f
3:30 21 28 mph 1016.4mb 37f
3:15 21 28 mph 1016.1mb 37f
3:00 23 30 mph 1015.8mb 37f
2:45 23 28 mph 1015.8mb 37f
2:30 28 38 mph 1015.7mb 37f
2:15 23 30 mph 1015.6mb 37f
2:00 25 34 mph 1015.3mb 37f
1:45 26 34 mph 1015.2mb 37f
1:30 28 36 mph 1015.2mb 37f
1:15 31 39 mph 1015.1mb 37f
1:00 28 37 mph 1015.1mb 37f
12:45 23 31 mph 1015.3mb 37f
12:30 20 26 mph 1015.4mb 38f
12:15 26 33 mph 1015.3mb 37f
12:00 25 32 mph 1015.4mb 37f
11:45 24 30 mph 1015.6mb 37f
11:30 25 32 mph 1015.5mb 37f
11:15 23 31 mph 1015.8mb 36f
11:00 16 22 mph 1016.2mb 37f
10:45 21 28 mph 1016.1mb 36f
10:30 21 28 mph 1016.2mb 36f
10:15 21 28 mph 1016.2mb 36f
10:00 17 24 mph 1016.2mb 36f
9:45 24 36 mph 1015.9mb 35f
9:30 18 23 mph 1015.9mb 35f
9:15 18 26 mph 1015.7mb 35f
9:00 17 21 mph 1015.7mb 34f
8:45 15 18 mph 1015.6mb 35f
8:30 17 23 mph 1015.4mb 34f
8:15 18 24 mph 1015.1mb 34f
8:00 16 21 mph 1014.8mb 34f
7:45 16 20 mph 1014.7mb 33f
7:30 20 23 mph 1014.4mb 33f
7:15 21 29 mph 1014.1mb 34f
7:00 20 24 mph 1014.1mb 34f
6:45 18 24 mph 1014mb 33f
6:30 21 26 mph 1013.5mb 34f
6:15 17 24 mph 1013.5mb 34f
6:00 17 22 mph 1013.4mb 33f
5:45 20 24 mph 1013.2mb 34f
5:30 18 23 mph 1013mb 34f
5:15 20 24 mph 1013mb 34f
5:00 18 24 mph 1013.2mb 34f
4:45 18 25 mph 1013.1mb 34f
4:30 18 23 mph 1013mb 34f
4:15 16 22 mph 1013mb 34f
4:00 17 21 mph 1013mb 34f
3:45 17 22 mph 1013mb 34f
3:30 17 21 mph 1013.1mb 35f
3:15 20 24 mph 1013mb 35f
3:00 22 29 mph 1012.7mb 35f
2:45 25 31 mph 1012.4mb 35f
2:30 22 26 mph 1012.3mb 35f
2:15 23 28 mph 1012.2mb 35f
2:00 21 26 mph 1012.2mb 35f
1:45 18 22 mph 1012.2mb 35f
1:30 22 28 mph 1012mb 36f
1:15 18 22 mph 1012.1mb 36f
1:00 18 23 mph 1012mb 36f
12:45 15 18 mph 1011.9mb 36f
12:30 15 17 mph 1012mb 36f
12:15 15 17 mph 1012mb 36f
12:00 16 20 mph 1012mb 36f
jue 12/08 6:45 20 23 mph 1010.6mb 41f
6:30 18 22 mph 1010.5mb 42f
6:15 20 24 mph 1010.2mb 42f
6:00 18 22 mph 1010.1mb 42f
5:45 17 21 mph 1010.2mb 42f
5:30 16 21 mph 1010.2mb 42f
5:15 21 24 mph 1010mb 42f
5:00 16 17 mph 1010.1mb 42f
4:45 15 18 mph 1009.9mb 42f
4:30 20 24 mph 1009.6mb 43f
4:15 21 25 mph 1009.5mb 43f
4:00 21 24 mph 1009.5mb 43f
3:45 24 30 mph 1009.2mb 43f
3:30 23 28 mph 1009.2mb 44f
3:15 22 26 mph 1009.1mb 44f
3:00 22 26 mph 1009mb 44f
2:45 23 26 mph 1009mb 43f
2:30 22 28 mph 1009mb 44f
2:15 22 26 mph 1008.9mb 44f
2:00 21 25 mph 1009mb 44f
1:45 18 22 mph 1009.1mb 44f
1:30 18 22 mph 1009.2mb 44f
1:15 20 22 mph 1009.3mb 43f
1:00 18 23 mph 1009.4mb 44f
12:45 18 23 mph 1009.5mb 44f
12:30 20 23 mph 1009.6mb 44f
12:15 21 23 mph 1010.1mb 44f
12:00 18 21 mph 1010.5mb 44f
11:45 15 18 mph 1010.7mb 43f
11:30 10 14 mph 1011mb 43f
11:15 7 9 mph 1011.1mb 42f
11:00 7 8 mph 1011.6mb 42f
10:45 5 7 mph 1012mb 42f
10:30 6 8 mph 1012.4mb 42f
10:15 7 8 mph 1012.8mb 42f
10:00 10 13 mph 1013.1mb 42f
9:45 13 15 mph 1013mb 41f
9:30 11 14 mph 1013mb 42f
9:15 9 13 mph 1013mb 41f
9:00 10 11 mph 1013.1mb 41f
8:45 6 7 mph 1013.1mb 41f
8:30 6 8 mph 1013.3mb 40f
8:15 5 6 mph 1013.3mb 40f
8:00 2 3 mph 1013.1mb 40f
7:45 3 5 mph 1013.2mb 40f
7:30 3 5 mph 1013.3mb 40f
7:15 5 6 mph 1013.6mb 40f
7:00 6 7 mph 1013.6mb 40f
6:45 5 6 mph 1013.6mb 40f
6:30 6 7 mph 1013.5mb 40f
6:15 6 7 mph 1013.5mb 40f
6:00 7
mph
1013.7mb 40f
5:45 5 6 mph 1013.5mb 40f
5:30 3 5 mph 1013.5mb 40f
5:15 5 6 mph 1013.8mb 40f
5:00 6 7 mph 1013.9mb 41f
4:45 6 7 mph 1013.9mb 41f
4:30 8 10 mph 1014mb 40f
4:15 6 7 mph 1014mb 40f
4:00 5 6 mph 1014.1mb 40f
3:45 2 3 mph 1014.2mb 40f
3:30 5 6 mph 1014.2mb 40f
3:15 6 7 mph 1014.1mb 40f
3:00 5 6 mph 1013.9mb 40f
2:45 6 7 mph 1014mb 41f
2:30 6 7 mph 1014.3mb 41f
2:15 3 5 mph 1014.6mb 41f
2:00 3
mph
1014.5mb 41f
1:45 5
mph
1014.5mb 41f
1:30 3 5 mph 1014.6mb 41f
1:15 6 7 mph 1014.7mb 42f
1:00 7 8 mph 1014.8mb 42f
12:45 6 8 mph 1014.9mb 42f
12:30 8 9 mph 1015.2mb 42f
12:15 9 10 mph 1015.2mb 42f
12:00 9 11 mph 1015.2mb 42f
mié 12/07 6:45 8 10 mph 1016.1mb 44f
6:30 9 11 mph 1015.8mb 44f
6:15 11 14 mph 1015.7mb 44f
6:00 11 15 mph 1015.8mb 44f
5:45 11 14 mph 1015.6mb 44f
5:30 10 13 mph 1015.4mb 44f
5:15 10 13 mph 1015.2mb 44f
5:00 10 13 mph 1014.9mb 44f
4:45 9 11 mph 1014.5mb 44f
4:30 8 10 mph 1014.2mb 44f
4:15 9 11 mph 1014.4mb 45f
4:00 11 13 mph 1014.2mb 45f
3:45 10 11 mph 1014.2mb 45f
3:30 8 10 mph 1014.1mb 45f
3:15 8 10 mph 1014mb 45f
3:00 7 8 mph 1013.5mb 45f
2:45 6 8 mph 1013.5mb 45f
2:30 6 8 mph 1013.6mb 44f
2:15 8 9 mph 1013.4mb 44f
2:00 7 8 mph 1013mb 44f
1:45 5 7 mph 1013mb 46f
1:30 5 6 mph 1012.9mb 45f
1:15 3 5 mph 1013.2mb 45f
1:00 5 6 mph 1013.1mb 45f
12:45 5 6 mph 1013.3mb 45f
12:30 5 6 mph 1013.3mb 45f
12:15 5 6 mph 1013.4mb 44f
12:00 6 8 mph 1013.2mb 44f
11:45 5 7 mph 1013.5mb 43f
11:30 2 5 mph 1014.1mb 43f
11:15 5 7 mph 1014.5mb 43f
11:00 7 8 mph 1014.7mb 42f
10:45 6 8 mph 1014.6mb 42f
10:30 6 10 mph 1014.8mb 41f
10:15 8 10 mph 1014.8mb 41f
10:00 9 11 mph 1015.1mb 40f
9:45 8 11 mph 1015mb 40f
9:30 10 13 mph 1014.6mb 40f
9:15 11 15 mph 1014.1mb 40f
9:00 10 14 mph 1013.8mb 39f
8:45 11 15 mph 1013.6mb 39f
8:30 13 15 mph 1013.5mb 39f
8:15 14 16 mph 1013.5mb 39f
8:00 14 17 mph 1013.5mb 38f
7:45 14 17 mph 1013.5mb 38f
7:30 14 16 mph 1013.5mb 38f
7:15 14 16 mph 1013.5mb 38f
7:00 15 17 mph 1013.5mb 38f
6:45 14 17 mph 1013.3mb 38f
6:30 13 15 mph 1013mb 38f
6:15 11 15 mph 1012.4mb 38f
6:00 13 16 mph 1012.1mb 38f
5:45 10 14 mph 1012mb 38f
5:30 11 16 mph 1012.3mb 38f
5:15 9 13 mph 1012mb 38f
5:00 10 14 mph 1011.8mb 38f
4:45 11 15 mph 1011.9mb 39f
4:30 11 16 mph 1011.6mb 39f
4:15 13 17 mph 1010.9mb 39f
4:00 11 15 mph 1010.6mb 39f
3:45 13 20 mph 1010.1mb 39f
3:30 14 17 mph 1010.1mb 39f
3:15 14 20 mph 1010.1mb 39f
3:00 15 23 mph 1010.1mb 39f
2:45 14 18 mph 1010.3mb 39f
2:30 15 20 mph 1010.9mb 39f
2:15 15 22 mph 1011.5mb 39f
2:00 14 18 mph 1011.9mb 40f
1:45 14 20 mph 1011.3mb 39f
1:30 16 22 mph 1011.2mb 39f
1:15 15 21 mph 1011mb 39f
1:00 15 21 mph 1011.1mb 39f
12:45 17 22 mph 1011.1mb 39f
12:30 16 20 mph 1011.5mb 39f
12:15 15 21 mph 1011.9mb 40f
12:00 13 16 mph 1011.9mb 39f
mar 12/06 6:45 7 9 mph 1014.7mb 43f
6:30 8 10 mph 1014.8mb 43f
6:15 7 9 mph 1014.9mb 43f
6:00 8 11 mph 1014.6mb 43f
5:45 9 13 mph 1014.6mb 43f
5:30 11 14 mph 1014.8mb 43f
5:15 13 16 mph 1014.6mb 44f
5:00 15 18 mph 1014.5mb 44f
4:45 17 21 mph 1014.5mb 44f
4:30 18 22 mph 1014.2mb 44f
4:15 20 21 mph 1014.2mb 45f
4:00 16 21 mph 1014.5mb 45f
3:45 14 16 mph 1014.9mb 45f
3:30 10 13 mph 1015.2mb 45f
3:15 10 11 mph 1015.5mb 44f
3:00 9 11 mph 1015.8mb 44f
2:45 8 10 mph 1016.2mb 45f
2:30 8 9 mph 1016.3mb 45f
2:15 7 9 mph 1016.4mb 45f
2:00 7 8 mph 1016.4mb 45f
1:30 6 7 mph 1017mb 45f
1:15 7 9 mph 1017.1mb 45f
1:00 7 9 mph 1017.1mb 45f
12:30 3 7 mph 1017.4mb 46f
12:15 7 9 mph 1017.4mb 45f
12:00 9 11 mph 1017.8mb 45f
11:45 6 7 mph 1018.3mb 45f
11:30 7 9 mph 1018.5mb 45f
11:15 5 7 mph 1018.6mb 44f
11:00 7 8 mph 1019.1mb 44f
10:45 9 10 mph 1019.3mb 45f
10:30 8 9 mph 1019.7mb 44f
10:15 7 8 mph 1020.1mb 43f
10:00 7 8 mph 1020.1mb 43f
9:45 7 8 mph 1019.9mb 44f
9:30 7 8 mph 1019.9mb 43f
9:15 7 8 mph 1020mb 42f
9:00 5 6 mph 1019.8mb 43f
8:45 2 3 mph 1019.5mb 41f
8:30 2
mph
1019.3mb 42f
8:15 2
mph
1019.2mb 39f
8:00 2
mph
1019.3mb 40f
7:45 2 3 mph 1019.3mb 39f
7:30 2 3 mph 1019.2mb 40f
7:15 2
mph
1019.1mb 37f
7:00 6 7 mph 1019.1mb 37f
6:45 6 7 mph 1019.3mb 37f
6:30 7 8 mph 1019.1mb 37f
6:15 8 10 mph 1019mb 37f
6:00 8 9 mph 1018.9mb 37f
5:45 14 15 mph 1018.5mb 38f
5:30 10 11 mph 1018.8mb 38f
5:15 11 13 mph 1018.9mb 38f
5:00 10 11 mph 1018.8mb 38f
4:45 8 10 mph 1018.8mb 38f
4:30 8
mph
1018.7mb 37f
4:15 7 8 mph 1018.7mb 37f
4:00 8 10 mph 1018.5mb 38f
3:45 10 11 mph 1018.4mb 39f
3:30 13 14 mph 1018.2mb 39f
3:15 13 14 mph 1018.4mb 39f
3:00 14 16 mph 1018.5mb 39f
2:45 11 15 mph 1018.5mb 39f
2:30 13 16 mph 1018.2mb 39f
2:15 11 14 mph 1018.1mb 40f
2:00 15 18 mph 1018mb 40f
1:45 15 17 mph 1018mb 40f
1:30 14 16 mph 1017.9mb 40f
1:15 17 21 mph 1017.5mb 40f
1:00 15 18 mph 1017.4mb 41f
12:45 16 21 mph 1017.3mb 40f
12:30 16 17 mph 1017mb 40f
12:15 15 17 mph 1016.8mb 41f
12:00 13 16 mph 1016.8mb 41f